首页
METAR-TAF:

METAR-TAF

机场 :

帕果帕果國際機場

帕果帕果, 美国本土外小岛屿

纬度: 14-20S, 经度: 170-43W, 海拔: 3米

当前天气观测

该预报发布于41分钟前的01:51 UTC
风速7节,风向东转东南
温度 29°C
湿度 79%
气压 1008 hPa
能見度: 19.3公里
少量云层高于1900英尺, 塔状积云.
散云层高于2200英尺

METAR: NSTU 200151Z 12007KT 12SM FEW019TCU SCT022 29/25 A2978 RMK TCU W-N-NE SLP085 T02940254

时间: 15:32 (02:32 UTC)

预报

该预报发布于2小时和42分钟前的23:50 UTC
预报有效从20日的 00点(UTC)到 20日的 24点(UTC)
风速10节,风向
能見度: 10公里
少量云层高于2000英尺
散云层高于4000英尺
短暂存在
从 19日的 23点(UTC)到 20日的 03点(UTC)
风速4节,风向多变
多云层高于2000英尺
从 20日的 0900点(UTC)
风速7节,风向东转东南
能見度: 10公里
少量云层高于2000英尺
散云层高于4000英尺

TAF: NSTU 192350Z 2000/2024 08010KT P6SM FEW020 SCT040 TEMPO 1923/2003 VRB04KT BKN020 FM200900 11007KT P6SM FEW020 SCT040

超过4000个机场的气象观测和天气预报(METAR&TAF报告)。

可查询的气象台以黄色和红色小点在地图上表示。

将鼠标移到小点上方,可查看气象台名称。

然后点击查看天气观测和预报。

如需切换地图:点击带黑十字的绿色按钮放大地图;点击带横线的绿色按钮缩小地图;或者点击绿色箭头查看邻近地区的地图。


METAR-TAF: